Time;durP1;ratioP1;P1;durP2;ratioP2;P2;SDS_P1;SDS_P2;PMS_P1;PMS_P2;Temp;Humidity;BMP_temperature;BMP_pressure;BME280_temperature;BME280_humidity;BME280_pressure;Samples;Min_cycle;Max_cycle;Signal;HPM_P1;HPM_P2
2022/03/25 00:00:14;;;;;;;319.00;97.93;;;;;;;;;;5100357;28;20285;-64
2022/03/25 00:02:41;;;;;;;277.83;96.20;;;;;;;;;;5102411;28;20107;-64
2022/03/25 00:05:07;;;;;;;332.60;106.20;;;;;;;;;;5097837;28;20086;-64
2022/03/25 00:07:34;;;;;;;332.67;102.60;;;;;;;;;;5097469;28;20306;-64
2022/03/25 00:10:01;;;;;;;377.90;109.37;;;;;;;;;;5072280;28;20290;-64
2022/03/25 00:12:30;;;;;;;349.57;103.43;;;;;;;;;;5090811;28;20059;-64
2022/03/25 00:14:56;;;;;;;345.70;103.13;;;;;;;;;;5090415;28;20279;-64
2022/03/25 00:17:22;;;;;;;332.13;102.83;;;;;;;;;;5091440;28;20325;-64
2022/03/25 00:19:48;;;;;;;331.30;99.73;;;;;;;;;;5096849;28;20308;-64
2022/03/25 00:22:14;;;;;;;347.67;102.30;;;;;;;;;;5097389;28;20928;-64
2022/03/25 00:24:40;;;;;;;347.10;98.90;;;;;;;;;;5095316;28;20298;-64
2022/03/25 00:27:06;;;;;;;361.27;103.57;;;;;;;;;;5096386;28;20321;-64
2022/03/25 00:29:32;;;;;;;291.00;96.07;;;;;;;;;;5097235;28;20040;-64
2022/03/25 00:31:58;;;;;;;310.20;96.63;;;;;;;;;;5096185;28;20335;-64
2022/03/25 00:34:24;;;;;;;350.37;104.43;;;;;;;;;;5098332;28;20331;-64
2022/03/25 00:36:50;;;;;;;356.00;106.67;;;;;;;;;;5094644;28;20277;-64
2022/03/25 00:39:16;;;;;;;357.50;106.90;;;;;;;;;;5100650;28;20359;-64
2022/03/25 00:41:44;;;;;;;323.93;104.70;;;;;;;;;;5098792;28;20278;-64
2022/03/25 00:44:10;;;;;;;369.70;107.90;;;;;;;;;;5098014;28;20292;-63
2022/03/25 00:46:36;;;;;;;399.03;110.57;;;;;;;;;;5095709;28;20290;-63
2022/03/25 00:49:04;;;;;;;383.63;106.60;;;;;;;;;;5098862;28;20286;-64
2022/03/25 00:51:30;;;;;;;387.33;105.27;;;;;;;;;;5093468;28;20307;-64
2022/03/25 00:53:56;;;;;;;339.20;100.60;;;;;;;;;;5099621;28;20293;-64
2022/03/25 00:56:24;;;;;;;373.13;105.10;;;;;;;;;;5099630;28;20277;-64
2022/03/25 00:58:50;;;;;;;427.50;109.63;;;;;;;;;;5097247;28;20305;-64
2022/03/25 01:01:16;;;;;;;396.80;106.17;;;;;;;;;;5095024;28;21563;-63
2022/03/25 01:03:43;;;;;;;345.47;95.67;;;;;;;;;;5097920;28;20799;-63
2022/03/25 01:06:09;;;;;;;307.93;91.53;;;;;;;;;;5100782;28;20418;-63
2022/03/25 01:08:35;;;;;;;371.67;100.60;;;;;;;;;;5097742;28;20847;-63
2022/03/25 01:11:02;;;;;;;337.37;99.50;;;;;;;;;;5099597;28;20297;-63
2022/03/25 01:13:33;;;;;;;293.97;92.97;;;;;;;;;;5097891;28;20376;-64
2022/03/25 01:15:59;;;;;;;349.23;98.80;;;;;;;;;;5098897;28;20380;-63
2022/03/25 01:18:25;;;;;;;312.60;97.47;;;;;;;;;;5079768;28;20397;-63
2022/03/25 01:20:51;;;;;;;350.53;99.13;;;;;;;;;;5088433;28;20040;-63
2022/03/25 01:23:18;;;;;;;318.13;98.70;;;;;;;;;;5088398;28;20288;-63
2022/03/25 01:25:44;;;;;;;332.73;97.77;;;;;;;;;;5096712;28;20833;-63
2022/03/25 01:28:10;;;;;;;374.53;102.03;;;;;;;;;;5097230;28;20795;-63
2022/03/25 01:30:36;;;;;;;356.40;99.27;;;;;;;;;;5098370;28;20356;-63
2022/03/25 01:33:03;;;;;;;358.60;103.40;;;;;;;;;;5096707;28;20050;-63
2022/03/25 01:35:29;;;;;;;394.87;104.03;;;;;;;;;;5099118;28;20073;-63
2022/03/25 01:37:55;;;;;;;316.37;94.97;;;;;;;;;;5080948;28;20828;-63
2022/03/25 01:40:21;;;;;;;396.00;105.37;;;;;;;;;;5087566;28;20688;-63
2022/03/25 01:42:47;;;;;;;364.77;99.97;;;;;;;;;;5096388;28;20378;-63
2022/03/25 01:45:13;;;;;;;319.73;91.33;;;;;;;;;;5099333;28;20296;-63
2022/03/25 01:47:40;;;;;;;341.13;92.33;;;;;;;;;;5078356;28;20318;-63
2022/03/25 01:50:19;;;;;;;353.40;98.20;;;;;;;;;;5087756;28;20289;-63
2022/03/25 01:52:45;;;;;;;316.40;87.40;;;;;;;;;;5098901;28;20373;-63
2022/03/25 01:55:16;;;;;;;377.40;98.67;;;;;;;;;;5095901;28;20277;-63
2022/03/25 01:57:43;;;;;;;353.57;95.17;;;;;;;;;;5098059;28;20796;-63
2022/03/25 02:00:09;;;;;;;394.43;100.80;;;;;;;;;;5096907;28;20713;-63
2022/03/25 02:02:39;;;;;;;365.37;93.20;;;;;;;;;;5098408;28;20285;-63
2022/03/25 02:05:05;;;;;;;379.90;97.50;;;;;;;;;;5098063;28;20994;-63
2022/03/25 02:07:31;;;;;;;405.53;104.27;;;;;;;;;;5096360;28;20335;-64
2022/03/25 02:09:59;;;;;;;368.93;94.63;;;;;;;;;;5098956;28;20944;-63
2022/03/25 02:12:25;;;;;;;379.97;99.23;;;;;;;;;;5098502;28;20305;-63
2022/03/25 02:14:51;;;;;;;363.07;98.27;;;;;;;;;;5095747;28;20273;-63
2022/03/25 02:17:17;;;;;;;340.77;92.33;;;;;;;;;;5097363;28;20373;-63
2022/03/25 02:19:43;;;;;;;381.77;95.53;;;;;;;;;;5096488;28;20285;-63
2022/03/25 02:22:10;;;;;;;363.83;90.27;;;;;;;;;;5098785;28;20289;-63
2022/03/25 02:24:35;;;;;;;340.03;89.50;;;;;;;;;;5096849;28;20283;-63
2022/03/25 02:27:03;;;;;;;399.37;104.57;;;;;;;;;;5102993;28;20285;-63
2022/03/25 02:29:29;;;;;;;384.90;95.83;;;;;;;;;;5090685;28;20127;-63
2022/03/25 02:31:55;;;;;;;382.00;95.00;;;;;;;;;;5095104;28;20404;-63
2022/03/25 02:34:21;;;;;;;613.93;124.40;;;;;;;;;;5108595;28;20060;-64
2022/03/25 02:36:47;;;;;;;853.27;137.20;;;;;;;;;;5090032;28;20283;-64
2022/03/25 02:39:14;;;;;;;912.73;140.80;;;;;;;;;;5108128;28;20386;-64
2022/03/25 02:41:41;;;;;;;1119.53;158.10;;;;;;;;;;5106632;28;20320;-63
2022/03/25 02:44:08;;;;;;;755.57;106.00;;;;;;;;;;5109635;28;20289;-64
2022/03/25 02:46:34;;;;;;;961.67;130.40;;;;;;;;;;5101478;28;20289;-63
2022/03/25 02:49:01;;;;;;;629.17;99.33;;;;;;;;;;5112052;28;20285;-64
2022/03/25 02:51:27;;;;;;;997.23;119.70;;;;;;;;;;5112375;28;20286;-63
2022/03/25 02:53:53;;;;;;;584.10;101.57;;;;;;;;;;5094301;28;20265;-63
2022/03/25 02:56:19;;;;;;;433.27;88.20;;;;;;;;;;5111636;28;20288;-64
2022/03/25 02:58:45;;;;;;;566.43;105.00;;;;;;;;;;5111979;28;20306;-63
2022/03/25 03:01:13;;;;;;;532.83;101.23;;;;;;;;;;5097440;28;20289;-63
2022/03/25 03:03:40;;;;;;;259.77;81.00;;;;;;;;;;5100310;28;20343;-64
2022/03/25 03:06:07;;;;;;;382.53;91.30;;;;;;;;;;5100468;28;20784;-64
2022/03/25 03:08:35;;;;;;;484.90;105.87;;;;;;;;;;5100865;28;20805;-64
2022/03/25 03:11:01;;;;;;;481.03;102.00;;;;;;;;;;5103498;28;20366;-63
2022/03/25 03:13:27;;;;;;;470.93;99.67;;;;;;;;;;5100477;28;20293;-63
2022/03/25 03:15:53;;;;;;;634.30;128.17;;;;;;;;;;5100115;28;20367;-63
2022/03/25 03:18:20;;;;;;;431.60;102.93;;;;;;;;;;5099537;28;20302;-63
2022/03/25 03:20:46;;;;;;;470.40;111.13;;;;;;;;;;5098217;28;20369;-63
2022/03/25 03:23:13;;;;;;;471.70;111.30;;;;;;;;;;5098785;28;20278;-63
2022/03/25 03:25:39;;;;;;;396.90;99.57;;;;;;;;;;5101487;28;20273;-63
2022/03/25 03:28:05;;;;;;;370.03;96.53;;;;;;;;;;5099674;28;20845;-63
2022/03/25 03:30:32;;;;;;;347.23;93.37;;;;;;;;;;5099933;28;20285;-64
2022/03/25 03:32:58;;;;;;;391.50;92.10;;;;;;;;;;5101482;28;20936;-63
2022/03/25 03:35:25;;;;;;;883.90;126.43;;;;;;;;;;5097696;28;20384;-64
2022/03/25 03:37:51;;;;;;;565.57;98.47;;;;;;;;;;5098913;28;20312;-63
2022/03/25 03:40:17;;;;;;;938.33;129.60;;;;;;;;;;5101080;28;20297;-63
2022/03/25 03:42:44;;;;;;;869.57;126.20;;;;;;;;;;5097573;28;20347;-64
2022/03/25 03:45:11;;;;;;;988.90;145.07;;;;;;;;;;5100190;28;20289;-63
2022/03/25 03:47:38;;;;;;;493.50;99.43;;;;;;;;;;5101215;28;20345;-64
2022/03/25 03:50:05;;;;;;;425.17;95.67;;;;;;;;;;5098494;28;20281;-63
2022/03/25 03:52:31;;;;;;;359.80;90.77;;;;;;;;;;5098521;28;20277;-63
2022/03/25 03:54:57;;;;;;;425.93;101.37;;;;;;;;;;5100143;28;20297;-64
2022/03/25 03:57:24;;;;;;;561.00;120.87;;;;;;;;;;5098464;28;20310;-64
2022/03/25 03:59:50;;;;;;;369.87;93.40;;;;;;;;;;5083326;28;20286;-63
2022/03/25 04:02:16;;;;;;;488.33;97.67;;;;;;;;;;5099611;28;20294;-63
2022/03/25 04:04:42;;;;;;;876.77;123.47;;;;;;;;;;5077841;28;20378;-63
2022/03/25 04:07:08;;;;;;;927.10;113.57;;;;;;;;;;5089603;28;20790;-64
2022/03/25 04:09:36;;;;;;;1169.27;137.33;;;;;;;;;;5092650;28;20285;-64
2022/03/25 04:12:02;;;;;;;1030.80;117.27;;;;;;;;;;5100375;28;20047;-64
2022/03/25 04:14:28;;;;;;;1255.10;142.60;;;;;;;;;;5100453;28;20655;-63
2022/03/25 04:16:54;;;;;;;1360.07;143.00;;;;;;;;;;5101459;28;20814;-63
2022/03/25 04:19:20;;;;;;;1126.77;126.47;;;;;;;;;;5098919;28;20297;-64
2022/03/25 04:21:46;;;;;;;875.03;112.30;;;;;;;;;;5097753;28;20304;-64
2022/03/25 04:24:12;;;;;;;686.63;106.40;;;;;;;;;;5100508;28;20278;-64
2022/03/25 04:26:38;;;;;;;743.97;104.13;;;;;;;;;;5103467;28;20635;-63
2022/03/25 04:29:04;;;;;;;490.27;87.43;;;;;;;;;;5095980;28;20051;-64
2022/03/25 04:31:30;;;;;;;473.97;90.60;;;;;;;;;;5099790;28;20813;-63
2022/03/25 04:33:56;;;;;;;420.90;94.33;;;;;;;;;;5100122;28;20048;-64
2022/03/25 04:36:22;;;;;;;429.53;99.13;;;;;;;;;;5097767;28;20058;-64
2022/03/25 04:38:48;;;;;;;645.67;108.83;;;;;;;;;;5099289;28;20669;-64
2022/03/25 04:41:14;;;;;;;482.70;85.20;;;;;;;;;;5098371;28;20047;-64
2022/03/25 04:43:41;;;;;;;576.00;85.23;;;;;;;;;;5097777;28;20278;-63
2022/03/25 04:46:08;;;;;;;702.43;89.17;;;;;;;;;;5098307;28;20282;-63
2022/03/25 04:48:34;;;;;;;647.20;78.50;;;;;;;;;;5100737;28;20340;-64
2022/03/25 04:51:00;;;;;;;646.30;82.10;;;;;;;;;;5097950;28;20775;-63
2022/03/25 04:53:26;;;;;;;367.10;63.83;;;;;;;;;;5098669;28;20282;-63
2022/03/25 04:55:53;;;;;;;203.83;55.97;;;;;;;;;;5099951;28;20044;-63
2022/03/25 04:58:19;;;;;;;238.30;56.10;;;;;;;;;;5099661;28;20048;-63
2022/03/25 05:00:45;;;;;;;216.50;54.13;;;;;;;;;;5099486;28;20368;-63
2022/03/25 05:03:12;;;;;;;262.90;54.63;;;;;;;;;;5098426;28;20313;-63
2022/03/25 05:05:42;;;;;;;334.73;60.73;;;;;;;;;;5097553;28;20290;-64
2022/03/25 05:08:09;;;;;;;313.80;66.83;;;;;;;;;;5099254;28;20347;-63
2022/03/25 05:10:36;;;;;;;184.73;57.90;;;;;;;;;;5097870;28;20435;-63
2022/03/25 05:13:02;;;;;;;320.17;78.00;;;;;;;;;;5097576;28;20637;-63
2022/03/25 05:15:28;;;;;;;324.63;81.70;;;;;;;;;;5097978;28;20282;-64
2022/03/25 05:17:54;;;;;;;289.40;74.57;;;;;;;;;;5097547;28;20313;-63
2022/03/25 05:20:21;;;;;;;273.13;72.17;;;;;;;;;;5099306;28;20308;-63
2022/03/25 05:22:48;;;;;;;598.37;88.67;;;;;;;;;;5097626;28;20285;-63
2022/03/25 05:25:15;;;;;;;692.10;88.43;;;;;;;;;;5097431;28;20285;-63
2022/03/25 05:27:49;;;;;;;862.33;102.87;;;;;;;;;;5096847;28;20357;-64
2022/03/25 05:30:16;;;;;;;808.00;97.77;;;;;;;;;;5099898;28;21050;-63
2022/03/25 05:32:42;;;;;;;851.73;99.60;;;;;;;;;;5093860;28;20300;-63
2022/03/25 05:35:09;;;;;;;583.30;82.13;;;;;;;;;;5107187;28;20316;-63
2022/03/25 05:37:39;;;;;;;818.70;98.17;;;;;;;;;;5090638;28;20649;-64
2022/03/25 05:40:06;;;;;;;633.30;77.57;;;;;;;;;;5105736;28;20296;-63
2022/03/25 05:42:32;;;;;;;515.83;69.20;;;;;;;;;;5108158;28;20281;-63
2022/03/25 05:44:58;;;;;;;586.03;77.83;;;;;;;;;;5108435;28;20290;-63
2022/03/25 05:47:25;;;;;;;574.47;78.00;;;;;;;;;;5109101;28;20338;-63
2022/03/25 05:49:51;;;;;;;467.17;70.87;;;;;;;;;;5108580;28;20289;-64
2022/03/25 05:52:17;;;;;;;332.80;68.70;;;;;;;;;;5106797;28;20308;-63
2022/03/25 05:54:44;;;;;;;284.93;60.37;;;;;;;;;;5088220;28;20282;-64
2022/03/25 05:57:10;;;;;;;512.00;74.90;;;;;;;;;;5088218;28;20343;-63
2022/03/25 05:59:36;;;;;;;595.13;79.90;;;;;;;;;;5100716;28;20799;-63
2022/03/25 06:02:02;;;;;;;490.80;69.00;;;;;;;;;;5108863;28;20278;-63
2022/03/25 06:04:28;;;;;;;550.50;75.53;;;;;;;;;;5094841;28;20282;-63
2022/03/25 06:06:54;;;;;;;433.17;67.87;;;;;;;;;;5088640;28;20282;-63
2022/03/25 06:09:20;;;;;;;291.90;64.13;;;;;;;;;;5088166;28;20282;-63
2022/03/25 06:11:47;;;;;;;282.03;61.77;;;;;;;;;;5099457;28;20332;-63
2022/03/25 06:14:13;;;;;;;282.53;62.90;;;;;;;;;;5070070;28;20647;-63
2022/03/25 06:16:39;;;;;;;210.83;54.03;;;;;;;;;;5088176;28;20400;-63
2022/03/25 06:19:05;;;;;;;199.57;55.27;;;;;;;;;;5096537;28;20309;-63
2022/03/25 06:21:31;;;;;;;190.07;55.30;;;;;;;;;;5112569;28;20364;-63
2022/03/25 06:23:57;;;;;;;233.37;62.13;;;;;;;;;;5091034;28;20667;-63
2022/03/25 06:26:24;;;;;;;195.30;58.60;;;;;;;;;;5092138;28;20270;-64
2022/03/25 06:28:50;;;;;;;169.07;53.43;;;;;;;;;;5095758;28;20292;-63
2022/03/25 06:31:16;;;;;;;160.63;53.27;;;;;;;;;;5104066;28;20286;-63
2022/03/25 06:33:42;;;;;;;206.47;62.77;;;;;;;;;;5112788;28;20285;-63
2022/03/25 06:36:09;;;;;;;200.03;62.93;;;;;;;;;;5093860;28;20748;-63
2022/03/25 06:38:36;;;;;;;177.63;57.60;;;;;;;;;;5092248;28;20380;-63
2022/03/25 06:41:02;;;;;;;190.57;60.70;;;;;;;;;;5092030;28;21270;-63
2022/03/25 06:43:28;;;;;;;187.93;60.97;;;;;;;;;;5091874;28;20329;-63
2022/03/25 06:45:54;;;;;;;169.67;58.40;;;;;;;;;;5091837;28;20288;-63
2022/03/25 06:48:20;;;;;;;182.03;59.50;;;;;;;;;;5092244;28;20279;-64
2022/03/25 06:50:47;;;;;;;189.90;61.17;;;;;;;;;;5091878;28;20290;-64
2022/03/25 06:53:14;;;;;;;240.87;68.00;;;;;;;;;;5092199;28;20317;-63
2022/03/25 06:55:40;;;;;;;198.43;62.10;;;;;;;;;;5091257;28;20298;-64
2022/03/25 06:58:07;;;;;;;207.13;68.83;;;;;;;;;;5105688;28;20308;-64
2022/03/25 07:00:34;;;;;;;196.87;63.40;;;;;;;;;;5111844;28;20320;-64
2022/03/25 07:03:00;;;;;;;194.73;63.50;;;;;;;;;;5102902;28;21044;-64
2022/03/25 07:05:30;;;;;;;205.93;65.33;;;;;;;;;;5110712;28;20282;-64
2022/03/25 07:07:56;;;;;;;198.27;64.73;;;;;;;;;;5091741;28;20294;-64
2022/03/25 07:10:23;;;;;;;218.50;69.90;;;;;;;;;;5091268;28;20772;-63
2022/03/25 07:12:50;;;;;;;187.47;67.80;;;;;;;;;;5091697;28;20281;-64
2022/03/25 07:15:16;;;;;;;235.00;70.23;;;;;;;;;;5076423;28;20299;-64
2022/03/25 07:17:43;;;;;;;217.37;72.37;;;;;;;;;;5090719;28;20302;-64
2022/03/25 07:20:13;;;;;;;217.53;68.27;;;;;;;;;;5091030;28;20044;-63
2022/03/25 07:22:40;;;;;;;186.53;65.53;;;;;;;;;;5091219;28;20093;-64
2022/03/25 07:25:06;;;;;;;199.53;67.00;;;;;;;;;;5091553;28;20302;-64
2022/03/25 07:27:32;;;;;;;206.90;68.83;;;;;;;;;;5111754;28;20108;-64
2022/03/25 07:29:58;;;;;;;207.73;69.50;;;;;;;;;;5092426;28;20983;-64
2022/03/25 07:32:24;;;;;;;218.70;69.83;;;;;;;;;;5110443;28;20281;-64
2022/03/25 07:34:51;;;;;;;205.73;70.30;;;;;;;;;;5110394;28;20062;-64
2022/03/25 07:37:17;;;;;;;184.53;67.00;;;;;;;;;;5110486;28;20104;-65
2022/03/25 07:39:44;;;;;;;199.90;67.80;;;;;;;;;;5110808;28;20493;-64
2022/03/25 07:42:11;;;;;;;177.93;63.40;;;;;;;;;;5111027;28;20309;-64
2022/03/25 07:44:39;;;;;;;168.30;64.57;;;;;;;;;;5110766;28;20046;-65
2022/03/25 07:47:05;;;;;;;190.67;70.17;;;;;;;;;;5111013;28;20074;-65
2022/03/25 07:49:34;;;;;;;167.10;63.97;;;;;;;;;;5110329;28;20090;-65
2022/03/25 07:52:00;;;;;;;163.03;67.63;;;;;;;;;;5098465;28;20071;-65
2022/03/25 07:54:26;;;;;;;155.00;63.57;;;;;;;;;;5101908;28;20043;-65
2022/03/25 07:56:55;;;;;;;168.27;63.77;;;;;;;;;;5102021;28;20571;-65
2022/03/25 07:59:22;;;;;;;182.00;65.80;;;;;;;;;;5089980;28;20502;-65
2022/03/25 08:01:47;;;;;;;176.17;69.53;;;;;;;;;;5090111;28;20044;-65
2022/03/25 08:04:14;;;;;;;188.53;73.53;;;;;;;;;;5105117;28;20039;-65
2022/03/25 08:06:41;;;;;;;169.97;67.13;;;;;;;;;;5104061;28;20050;-65
2022/03/25 08:09:07;;;;;;;133.13;59.83;;;;;;;;;;5100466;28;20043;-65
2022/03/25 08:11:33;;;;;;;141.77;59.60;;;;;;;;;;5089949;28;20407;-65
2022/03/25 08:13:59;;;;;;;133.50;57.47;;;;;;;;;;5093940;28;20051;-65
2022/03/25 08:16:25;;;;;;;136.07;65.17;;;;;;;;;;5102207;28;20047;-65
2022/03/25 08:18:52;;;;;;;128.97;58.77;;;;;;;;;;5095416;28;20097;-65
2022/03/25 08:21:18;;;;;;;123.30;58.47;;;;;;;;;;5098823;28;20084;-65
2022/03/25 08:29:17;;;;;;;121.03;54.83;;;;;;;;;;5092476;28;20477;-65
2022/03/25 08:31:43;;;;;;;102.70;50.67;;;;;;;;;;5098776;28;20040;-65
2022/03/25 08:34:14;;;;;;;106.23;52.80;;;;;;;;;;5108644;28;20086;-65
2022/03/25 08:36:40;;;;;;;101.00;50.73;;;;;;;;;;5075350;28;20491;-65
2022/03/25 08:39:06;;;;;;;97.90;50.83;;;;;;;;;;5094458;28;20058;-65
2022/03/25 08:41:33;;;;;;;89.17;48.83;;;;;;;;;;5092346;28;20046;-65
2022/03/25 08:43:58;;;;;;;85.87;47.33;;;6.70;1.00;;;;;;5101457;28;20079;-65
2022/03/25 08:46:24;;;;;;;90.47;47.97;;;;;;;;;;5099792;28;20541;-65
2022/03/25 08:48:52;;;;;;;92.23;49.10;;;;;;;;;;5087422;28;20044;-65
2022/03/25 08:51:18;;;;;;;101.50;51.87;;;;;;;;;;5087548;28;20485;-65
2022/03/25 08:53:45;;;;;;;105.53;49.90;;;;;;;;;;5104642;28;20053;-65
2022/03/25 08:56:12;;;;;;;87.17;46.77;;;;;;;;;;5106800;28;20066;-65
2022/03/25 08:58:39;;;;;;;75.07;43.67;;;;;;;;;;5108447;28;20436;-65
2022/03/25 09:01:05;;;;;;;69.20;40.90;;;;;;;;;;5107935;28;20107;-65
2022/03/25 09:03:31;;;;;;;62.43;38.90;;;;;;;;;;5088774;28;20486;-65
2022/03/25 09:05:57;;;;;;;68.97;38.37;;;;;;;;;;5088931;28;20051;-65
2022/03/25 09:08:23;;;;;;;55.67;34.50;;;;;;;;;;5101900;28;20134;-65
2022/03/25 09:10:49;;;;;;;38.93;27.13;;;;;;;;;;5109252;28;20317;-65
2022/03/25 09:13:15;;;;;;;51.07;31.50;;;;;;;;;;5094864;28;20067;-65
2022/03/25 09:15:41;;;;;;;49.40;31.40;;;;;;;;;;5105378;28;20085;-65
2022/03/25 09:18:07;;;;;;;43.13;28.73;;;;;;;;;;5107508;28;20078;-65
2022/03/25 09:20:33;;;;;;;48.00;29.20;;;;;;;;;;5088677;28;20044;-65
2022/03/25 09:23:00;;;;;;;49.27;29.43;;;;;;;;;;5093468;28;20038;-65
2022/03/25 09:25:27;;;;;;;46.10;29.63;;;;;;;;;;5091546;28;20051;-65
2022/03/25 09:27:53;;;;;;;42.63;27.77;;;;;;;;;;5106434;28;20481;-65
2022/03/25 09:30:19;;;;;;;45.07;29.60;;;;;;;;;;5098870;28;20423;-65
2022/03/25 09:32:45;;;;;;;44.20;27.70;;;;;;;;;;5069775;28;20056;-65
2022/03/25 09:35:13;;;;;;;41.73;27.93;;;;;;;;;;5088489;28;20065;-65
2022/03/25 09:37:46;;;;;;;40.47;27.23;;;;;;;;;;5052838;28;20043;-65
2022/03/25 09:40:14;;;;;;;40.43;25.53;;;;;;;;;;5088475;28;20051;-65
2022/03/25 09:42:40;;;;;;;43.57;27.10;;;;;;;;;;5102042;28;20039;-65
2022/03/25 09:45:08;;;;;;;46.13;26.33;;;;;;;;;;5106883;28;20286;-65
2022/03/25 09:47:34;;;;;;;39.13;26.97;;;;;;;;;;5088262;28;20681;-65
2022/03/25 09:50:00;;;;;;;38.33;26.13;;;;;;;;;;5087047;28;20048;-65
2022/03/25 09:52:28;;;;;;;42.23;28.30;;;;;;;;;;5073017;28;20584;-65
2022/03/25 09:54:54;;;;;;;38.93;27.00;;;;;;;;;;5108189;28;20525;-65
2022/03/25 09:57:20;;;;;;;42.57;26.13;;;;;;;;;;5106414;28;20036;-65
2022/03/25 09:59:46;;;;;;;39.37;26.63;;;;;;;;;;5089696;28;20044;-65
2022/03/25 10:02:12;;;;;;;40.87;27.30;;;;;;;;;;5107551;28;20044;-65
2022/03/25 10:04:45;;;;;;;37.70;27.23;;;;;;;;;;5108694;28;20055;-66
2022/03/25 10:07:22;;;;;;;41.45;26.15;;;;;;;;;;5106830;28;20520;-65
2022/03/25 10:09:49;;;;;;;39.43;26.13;;;;;;;;;;5108572;28;20054;-65
2022/03/25 10:12:25;;;;;;;44.30;25.43;;;;;;;;;;5107170;28;20035;-65
2022/03/25 10:14:52;;;;;;;38.67;26.43;;;;;;;;;;5108912;28;20047;-65
2022/03/25 10:17:19;;;;;;;40.97;25.83;;;;;;;;;;5092398;28;20100;-65
2022/03/25 10:19:49;;;;;;;39.63;26.50;;;;;;;;;;5087348;28;20052;-65
2022/03/25 10:22:16;;;;;;;40.97;26.30;;;;;;;;;;5102336;28;20047;-65
2022/03/25 10:24:48;;;;;;;38.53;24.47;;;;;;;;;;5094051;28;20093;-65
2022/03/25 10:27:15;;;;;;;41.30;25.07;;;;;;;;;;5095266;28;20115;-65
2022/03/25 10:29:44;;;;;;;39.27;24.43;;;;;;;;;;5097320;28;20036;-65
2022/03/25 10:32:11;;;;;;;36.37;23.67;;;;;;;;;;5099130;28;20055;-65
2022/03/25 10:34:38;;;;;;;35.70;24.80;;;;;;;;;;5097806;28;20148;-65
2022/03/25 10:37:05;;;;;;;35.70;23.47;;;;;;;;;;5078125;28;20158;-65
2022/03/25 10:39:32;;;;;;;38.87;22.97;;;;;;;;;;5097047;28;20217;-65
2022/03/25 10:41:59;;;;;;;36.30;24.83;;;;;;;;;;5095912;28;20055;-65
2022/03/25 10:44:33;;;;;;;37.20;24.67;;;;;;;;;;5094098;28;20040;-65
2022/03/25 10:46:59;;;;;;;36.13;23.10;;;;;;;;;;5095805;28;20051;-65
2022/03/25 10:49:26;;;;;;;41.27;24.80;;;;;;;;;;5097734;28;20036;-65
2022/03/25 10:51:53;;;;;;;40.30;25.00;;;;;;;;;;5098710;28;20036;-66
2022/03/25 10:54:22;;;;;;;35.47;23.60;;;;;;;;;;5080034;28;20040;-66
2022/03/25 10:56:56;;;;;;;35.93;23.60;;;;;;;;;;5089345;28;20036;-66
2022/03/25 10:59:22;;;;;;;;;;;;;;;;;;5095744;28;20575;-66
2022/03/25 11:01:50;;;;;;;34.53;23.37;;;;;;;;;;5079850;28;19919;-66
2022/03/25 11:04:16;;;;;;;37.60;23.43;;;;;;;;;;5100003;28;20040;-66
2022/03/25 11:06:43;;;;;;;39.07;24.13;;;;;;;;;;5081471;28;20048;-66
2022/03/25 11:09:09;;;;;;;33.13;23.67;;;;;;;;;;5099223;28;20114;-66
2022/03/25 11:11:37;;;;;;;37.93;23.47;;;;;;;;;;5100468;28;20524;-66
2022/03/25 11:14:04;;;;;;;35.23;23.40;;;;;;;;;;5100160;28;20036;-66
2022/03/25 11:16:31;;;;;;;33.53;22.03;;;;;;;;;;5099019;28;20047;-66
2022/03/25 11:18:57;;;;;;;34.80;24.40;;;;;;;;;;5098381;28;20055;-67
2022/03/25 11:21:24;;;;;;;32.87;22.37;;;;;;;;;;5099208;28;20063;-66
2022/03/25 11:23:51;;;;;;;37.67;23.90;;;;;;;;;;5077884;28;20468;-66
2022/03/25 11:26:20;;;;;;;33.07;23.17;;;;;;;;;;5090154;28;20044;-66
2022/03/25 11:28:46;;;;;;;30.30;22.20;;;;;;;;;;5092400;28;20044;-66
2022/03/25 11:31:12;;;;;;;36.93;22.10;;;;;;;;;;5099866;28;20517;-66
2022/03/25 11:34:02;;;;;;;33.57;22.67;;;;;;;;;;5100658;28;20048;-66
2022/03/25 11:36:28;;;;;;;31.77;22.80;;;;;;;;;;5066907;28;20056;-66
2022/03/25 11:39:16;;;;;;;30.83;21.67;;;;;;;;;;5099149;28;20048;-66
2022/03/25 11:41:42;;;;;;;30.80;22.13;;;;;;;;;;5091301;28;20061;-66
2022/03/25 11:44:14;;;;;;;35.00;23.67;;;;;;;;;;5099841;28;21528;-66
2022/03/25 11:46:59;;;;;;;36.17;23.53;;;;;;;;;;5100083;28;20031;-67
2022/03/25 11:49:29;;;;;;;33.80;23.27;;;;;;;;;;5100280;28;20117;-67
2022/03/25 11:51:55;;;;;;;33.20;22.90;;;;;;;;;;5100641;28;20051;-66
2022/03/25 11:54:35;;;;;;;35.17;22.13;;;;;;;;;;5098729;28;20414;-64
2022/03/25 11:57:02;;;;;;;30.70;21.10;;;;;;;;;;5077129;28;20146;-65
2022/03/25 11:59:46;;;;;;;32.63;23.17;;;;;;;;;;5092926;28;20052;-65
2022/03/25 12:02:29;;;;;;;37.15;23.02;;;;;;;;;;5081114;28;20046;-65
2022/03/25 12:04:56;;;;;;;26.95;20.15;;;;;;;;;;5077541;28;20079;-65
2022/03/25 12:07:22;;;;;;;31.33;22.20;;;;;;;;;;5082200;28;20058;-66
2022/03/25 12:09:48;;;;;;;33.05;22.33;;;;;;;;;;5108280;28;20494;-65
2022/03/25 12:12:14;;;;;;;32.55;22.20;;;;;;;;;;5107368;28;20044;-66
2022/03/25 12:14:59;;;;;;;35.15;21.88;;;;;;;;;;5089673;28;20040;-65
2022/03/25 12:17:25;;;;;;;29.30;21.27;;;;;;;;;;5090961;28;20040;-66
2022/03/25 12:19:53;;;;;;;30.92;20.98;;;;;;;;;;5092567;28;20043;-66
2022/03/25 12:22:23;;;;;;;33.63;21.00;;;;;;;;;;5089842;28;20059;-66
2022/03/25 12:24:53;;;;;;;29.95;21.30;;;;;;;;;;5089959;28;20395;-66
2022/03/25 12:27:20;;;;;;;29.48;20.30;;;;;;;;;;5090282;28;20097;-66
2022/03/25 12:29:54;;;;;;;29.60;20.17;;;;;;;;;;5072269;28;20075;-66
2022/03/25 12:32:40;;;;;;;29.33;19.75;;;;;;;;;;5090943;28;20094;-66
2022/03/25 12:35:09;;;;;;;28.60;20.38;;;;;;;;;;5099738;28;20055;-66
2022/03/25 12:37:36;;;;;;;31.67;20.13;;;;;;;;;;5105892;28;20506;-66
2022/03/25 12:40:13;;;;;;;26.73;19.38;;;;;;;;;;5103937;28;20047;-66
2022/03/25 12:42:39;;;;;;;29.48;19.90;;;;;;;;;;5105318;28;20139;-66
2022/03/25 12:45:05;;;;;;;28.42;20.45;;;;;;;;;;5089542;28;20055;-66
2022/03/25 12:47:32;;;;;;;31.73;20.40;;;;;;;;;;5102770;28;20085;-66
2022/03/25 12:50:00;;;;;;;29.35;21.05;;;;;;;;;;5095699;28;20143;-66
2022/03/25 12:52:26;;;;;;;31.75;19.73;;;;;;;;;;5101733;28;20070;-66
2022/03/25 12:54:53;;;;;;;26.38;18.77;;;;;;;;;;5089117;28;20040;-66
2022/03/25 12:57:30;;;;;;;32.17;20.77;;;;;;;;;;5089525;28;20048;-67
2022/03/25 12:59:57;;;;;;;26.17;19.08;;;;;;;;;;5092339;28;20050;-66
2022/03/25 13:02:34;;;;;;;26.77;17.60;;;;;;;;;;5106170;28;20044;-66
2022/03/25 13:05:11;;;;;;;27.23;15.82;;;;;;;;;;5089407;28;20084;-66
2022/03/25 13:07:37;;;;;;;20.60;14.15;;;;;;;;;;5089299;28;20104;-66
2022/03/25 13:10:04;;;;;;;25.50;15.82;;;;;;;;;;5089552;28;20525;-66
2022/03/25 13:12:30;;;;;;;22.35;14.93;;;;;;;;;;5089151;28;20048;-66
2022/03/25 13:14:57;;;;;;;24.23;15.35;;;;;;;;;;5089830;28;20501;-66
2022/03/25 13:17:43;;;;;;;26.70;15.27;;;;;;;;;;5088563;28;20103;-66
2022/03/25 13:20:16;;;;;;;26.77;15.48;;;;;;;;;;5089290;28;20123;-66
2022/03/25 13:22:54;;;;;;;23.20;15.98;;;;;;;;;;5098039;28;20039;-66
2022/03/25 13:25:31;;;;;;;24.85;15.73;;;;;;;;;;5090907;28;20048;-66
2022/03/25 13:27:58;;;;;;;20.13;13.68;;;;;;;;;;5099823;28;20494;-66
2022/03/25 13:30:24;;;;;;;25.15;14.43;;;;;;;;;;5108001;28;20048;-66
2022/03/25 13:32:58;;;;;;;25.35;13.45;;;;;;;;;;5090353;28;20048;-66
2022/03/25 13:35:30;;;;;;;21.17;12.48;;;;;;;;;;5089756;28;20060;-66
2022/03/25 13:38:05;;;;;;;27.13;12.90;;;;;;;;;;5108763;28;20118;-66
2022/03/25 13:40:33;;;;;;;25.75;12.90;;;;;;;;;;5099483;28;20630;-67
2022/03/25 13:42:59;;;;;;;22.20;13.98;;;;;;;;;;5103952;28;20330;-66
2022/03/25 13:45:26;;;;;;;20.73;13.48;;;;;;;;;;5089848;28;20035;-66
2022/03/25 13:47:59;;;;;;;21.50;13.30;;;;;;;;;;5088795;28;20611;-66
2022/03/25 13:50:25;;;;;;;20.58;11.07;;;;;;;;;;5088988;28;20052;-66
2022/03/25 13:52:55;;;;;;;17.65;11.32;;;;;;;;;;5091036;28;20137;-66
2022/03/25 13:55:30;;;;;;;17.20;9.48;;;;;;;;;;5088934;28;20044;-66
2022/03/25 13:57:57;;;;;;;14.63;10.00;;;;;;;;;;5100411;28;20036;-66
2022/03/25 14:00:33;;;;;;;22.85;14.70;;;;;;;;;;5088213;28;20573;-67
2022/03/25 14:03:00;;;;;;;20.88;11.38;;;;;;;;;;5088529;28;20043;-67
2022/03/25 14:05:26;;;;;;;16.35;11.00;;;;;;;;;;5088841;28;20125;-66
2022/03/25 14:07:57;;;;;;;16.33;8.60;;;;;;;;;;5091963;28;20036;-66
2022/03/25 14:10:24;;;;;;;17.23;8.20;;;;;;;;;;5088292;28;20052;-66
2022/03/25 14:12:57;;;;;;;17.88;10.10;;;;;;;;;;5088433;28;20536;-66